createdAt,value
2019-05-10T00:01:30.751Z,86.30
2019-05-10T00:04:18.735Z,86.00
2019-05-10T00:07:06.959Z,85.90
2019-05-10T00:09:36.401Z,85.90
2019-05-10T00:12:13.883Z,86.50
2019-05-10T00:14:45.650Z,86.90
2019-05-10T00:17:17.547Z,87.50
2019-05-10T00:19:48.446Z,87.80
2019-05-10T00:22:18.562Z,88.20
2019-05-10T00:25:02.274Z,88.50
2019-05-10T00:27:20.612Z,88.60
2019-05-10T00:29:50.659Z,88.70
2019-05-10T00:32:20.792Z,89.20
2019-05-10T00:34:50.892Z,89.60
2019-05-10T00:37:20.940Z,89.80
2019-05-10T00:39:50.888Z,89.70
2019-05-10T00:42:20.948Z,89.80
2019-05-10T00:44:50.979Z,89.70
2019-05-10T00:47:21.077Z,89.90
2019-05-10T00:49:51.090Z,90.00
2019-05-10T00:52:21.286Z,90.00
2019-05-10T00:54:51.268Z,90.60
2019-05-10T00:57:21.287Z,90.30
2019-05-10T00:59:51.351Z,90.50
2019-05-10T01:02:21.375Z,90.50
2019-05-10T01:04:53.715Z,90.50
2019-05-10T01:07:23.939Z,90.60
2019-05-10T01:09:54.042Z,90.60
2019-05-10T01:12:24.672Z,90.60
2019-05-10T01:14:54.760Z,90.60
2019-05-10T01:17:24.964Z,90.60
2019-05-10T01:19:56.067Z,90.60
2019-05-10T01:22:26.120Z,90.70
2019-05-10T01:24:56.074Z,90.60
2019-05-10T01:27:26.195Z,90.60
2019-05-10T01:29:57.977Z,90.70
2019-05-10T01:32:28.707Z,90.70
2019-05-10T01:35:00.415Z,90.90
2019-05-10T01:37:30.408Z,90.90
2019-05-10T01:40:00.499Z,91.10
2019-05-10T01:42:30.496Z,91.00
2019-05-10T01:45:00.855Z,91.00
2019-05-10T01:47:30.953Z,90.80
2019-05-10T01:50:01.028Z,90.90
2019-05-10T01:52:31.046Z,91.00
2019-05-10T01:55:01.099Z,91.10
2019-05-10T01:57:31.140Z,91.20
2019-05-10T02:00:01.207Z,91.30
2019-05-10T02:02:31.295Z,91.40
2019-05-10T02:05:01.415Z,91.70
2019-05-10T02:07:31.637Z,91.90
2019-05-10T02:10:01.767Z,91.90
2019-05-10T02:12:34.503Z,91.60
2019-05-10T02:15:08.749Z,91.50
2019-05-10T02:17:38.808Z,91.20
2019-05-10T02:20:09.490Z,90.90
2019-05-10T02:22:39.599Z,90.80
2019-05-10T02:25:09.687Z,90.50
2019-05-10T02:27:39.755Z,90.00
2019-05-10T02:30:10.744Z,90.00
2019-05-10T02:32:40.803Z,89.60
2019-05-10T02:35:11.001Z,88.60
2019-05-10T02:37:41.074Z,87.80
2019-05-10T02:40:12.873Z,87.90
2019-05-10T02:42:42.895Z,87.50
2019-05-10T02:45:13.259Z,87.10
2019-05-10T02:47:43.539Z,86.90
2019-05-10T02:50:14.366Z,87.20
2019-05-10T02:52:44.484Z,87.00
2019-05-10T02:55:22.330Z,86.60
2019-05-10T02:57:53.980Z,86.40
2019-05-10T03:00:25.375Z,86.40
2019-05-10T03:02:56.097Z,86.50
2019-05-10T03:05:29.120Z,86.00
2019-05-10T03:08:00.797Z,85.90
2019-05-10T03:10:32.453Z,86.40
2019-05-10T03:13:04.802Z,86.70
2019-05-10T03:15:36.872Z,87.10
2019-05-10T03:18:07.790Z,87.70
2019-05-10T03:20:38.766Z,87.70
2019-05-10T03:23:10.565Z,87.30
2019-05-10T03:25:40.680Z,87.70
2019-05-10T03:28:10.723Z,87.60
2019-05-10T03:30:41.022Z,87.70
2019-05-10T03:33:11.181Z,88.00
2019-05-10T03:35:41.274Z,88.20
2019-05-10T03:38:11.314Z,88.50
2019-05-10T03:40:41.407Z,88.10
2019-05-10T03:43:11.663Z,88.10
2019-05-10T03:45:41.875Z,88.10
2019-05-10T03:48:11.868Z,88.50
2019-05-10T03:50:41.891Z,88.50
2019-05-10T03:53:31.290Z,88.60
2019-05-10T03:56:01.270Z,88.60
2019-05-10T03:58:31.293Z,88.80
2019-05-10T04:01:01.454Z,89.30
2019-05-10T04:03:31.729Z,89.10
2019-05-10T04:06:01.846Z,89.60
2019-05-10T04:08:31.867Z,89.10
2019-05-10T04:11:02.063Z,89.70
2019-05-10T04:13:32.123Z,90.00
2019-05-10T04:16:02.289Z,90.10
2019-05-10T04:18:32.547Z,90.00
2019-05-10T04:21:02.568Z,89.60
2019-05-10T04:23:32.721Z,89.40
2019-05-10T04:26:02.662Z,89.40
2019-05-10T04:28:35.514Z,88.80
2019-05-10T04:33:47.547Z,89.60
2019-05-10T04:36:17.656Z,89.30
2019-05-10T04:38:47.663Z,88.40
2019-05-10T04:41:17.704Z,88.20
2019-05-10T04:43:47.667Z,87.90
2019-05-10T04:46:17.729Z,88.20
2019-05-10T04:48:53.800Z,88.80
2019-05-10T04:51:23.994Z,89.30
2019-05-10T04:53:54.257Z,88.80
2019-05-10T04:56:24.459Z,88.30
2019-05-10T04:58:54.557Z,88.20
2019-05-10T05:01:24.539Z,88.10
2019-05-10T05:03:54.551Z,87.80
2019-05-10T05:06:24.608Z,87.80
2019-05-10T05:08:54.634Z,87.60
2019-05-10T05:11:44.136Z,87.70
2019-05-10T05:14:14.251Z,87.60
2019-05-10T05:16:44.270Z,87.60
2019-05-10T05:19:14.285Z,88.10
2019-05-10T05:21:44.291Z,87.60
2019-05-10T05:24:16.936Z,86.80
2019-05-10T05:26:46.018Z,85.20
2019-05-10T05:29:16.075Z,84.90
2019-05-10T05:31:46.168Z,85.50
2019-05-10T05:34:16.355Z,84.70
2019-05-10T05:36:46.359Z,85.10
2019-05-10T05:39:16.378Z,84.30
2019-05-10T05:41:51.785Z,83.90
2019-05-10T05:44:20.414Z,83.50
2019-05-10T05:47:10.427Z,83.80
2019-05-10T05:49:40.479Z,83.70
2019-05-10T05:52:10.531Z,83.60
2019-05-10T05:54:40.562Z,83.30
2019-05-10T05:57:10.694Z,83.70
2019-05-10T05:59:40.715Z,84.20
2019-05-10T06:02:10.930Z,84.70
2019-05-10T06:04:45.920Z,85.00
2019-05-10T06:07:12.555Z,85.00
2019-05-10T06:09:42.737Z,85.50
2019-05-10T06:12:14.242Z,85.70
2019-05-10T06:14:49.607Z,86.00
2019-05-10T06:17:15.932Z,85.60
2019-05-10T06:19:51.176Z,85.50
2019-05-10T06:22:21.124Z,85.20
2019-05-10T06:24:52.524Z,85.20
2019-05-10T06:27:24.143Z,84.90
2019-05-10T06:29:54.091Z,84.80
2019-05-10T06:32:24.366Z,84.70
2019-05-10T06:34:54.286Z,84.50
2019-05-10T06:37:24.423Z,84.80
2019-05-10T06:39:54.747Z,84.70
2019-05-10T06:42:28.756Z,84.80
2019-05-10T06:44:56.559Z,85.00
2019-05-10T06:47:26.686Z,85.50
2019-05-10T06:49:57.016Z,85.50
2019-05-10T06:52:28.037Z,85.90
2019-05-10T06:54:58.938Z,86.10
2019-05-10T06:57:29.197Z,85.90
2019-05-10T07:00:06.065Z,86.00
2019-05-10T07:02:32.546Z,85.10
2019-05-10T07:05:03.034Z,84.00
2019-05-10T07:07:43.999Z,84.00
2019-05-10T07:10:15.816Z,83.70
2019-05-10T07:12:39.844Z,83.90
2019-05-10T07:15:10.579Z,83.90
2019-05-10T07:17:45.362Z,84.10
2019-05-10T07:20:12.413Z,84.00
2019-05-10T07:22:42.474Z,83.30
2019-05-10T07:25:12.860Z,83.50
2019-05-10T07:27:44.204Z,82.50
2019-05-10T07:30:16.318Z,82.90
2019-05-10T07:32:46.615Z,82.60
2019-05-10T07:35:16.790Z,82.50
2019-05-10T07:37:47.596Z,82.00
2019-05-10T07:40:18.675Z,82.40
2019-05-10T07:43:02.360Z,82.10
2019-05-10T07:45:32.601Z,82.00
2019-05-10T07:48:07.877Z,81.90
2019-05-10T07:50:34.231Z,81.50
2019-05-10T07:53:04.355Z,81.20
2019-05-10T07:55:34.440Z,81.50
2019-05-10T07:58:05.471Z,80.60
2019-05-10T08:00:43.790Z,80.20
2019-05-10T08:03:16.119Z,80.40
2019-05-10T08:05:40.193Z,80.30
2019-05-10T08:08:10.460Z,80.20
2019-05-10T08:10:40.676Z,77.00
2019-05-10T08:13:15.339Z,77.50
2019-05-10T08:15:43.507Z,76.40
2019-05-10T08:18:15.257Z,73.50
2019-05-10T08:20:53.447Z,72.50
2019-05-10T08:23:18.005Z,72.70
2019-05-10T08:25:48.561Z,73.70
2019-05-10T08:28:18.619Z,73.40
2019-05-10T08:30:53.651Z,73.70
2019-05-10T08:33:22.741Z,71.60
2019-05-10T08:36:00.294Z,69.40
2019-05-10T08:38:24.253Z,70.40
2019-05-10T08:40:54.571Z,70.90
2019-05-10T08:43:24.865Z,70.90
2019-05-10T08:45:57.839Z,71.50
2019-05-10T08:48:27.710Z,71.50
2019-05-10T08:51:04.019Z,71.60
2019-05-10T08:53:30.115Z,68.50
2019-05-10T08:56:02.257Z,67.60
2019-05-10T08:58:36.886Z,66.80
2019-05-10T09:01:16.228Z,67.20
2019-05-10T09:03:35.703Z,68.10
2019-05-10T09:06:11.782Z,68.50
2019-05-10T09:08:37.463Z,67.90
2019-05-10T09:11:07.477Z,67.30
2019-05-10T09:13:41.443Z,64.90
2019-05-10T09:16:09.539Z,66.10
2019-05-10T09:18:53.668Z,67.00
2019-05-10T09:21:23.779Z,67.80
2019-05-10T09:24:01.749Z,68.60
2019-05-10T09:26:25.475Z,65.70
2019-05-10T09:28:57.735Z,65.50
2019-05-10T09:31:27.314Z,65.90
2019-05-10T09:33:57.436Z,65.30
2019-05-10T09:36:31.212Z,64.90
2019-05-10T09:38:59.247Z,65.00
2019-05-10T09:41:36.022Z,64.30
2019-05-10T09:44:03.040Z,65.10
2019-05-10T09:46:35.279Z,64.20
2019-05-10T09:49:14.702Z,63.80
2019-05-10T09:51:37.115Z,63.10
2019-05-10T09:54:07.803Z,65.00
2019-05-10T09:56:44.173Z,64.60
2019-05-10T09:59:10.047Z,62.70
2019-05-10T10:01:59.404Z,63.70
2019-05-10T10:04:30.468Z,65.20
2019-05-10T10:07:00.559Z,66.40
2019-05-10T10:09:37.316Z,64.50
2019-05-10T10:12:03.260Z,63.70
2019-05-10T10:14:39.335Z,63.40
2019-05-10T10:17:05.187Z,64.30
2019-05-10T10:19:37.567Z,64.40
2019-05-10T10:22:11.414Z,64.50
2019-05-10T10:24:41.055Z,64.20
2019-05-10T10:27:12.651Z,64.90
2019-05-10T10:29:42.745Z,64.40
2019-05-10T10:32:12.798Z,64.60
2019-05-10T10:34:43.305Z,63.10
2019-05-10T10:37:14.812Z,61.60
2019-05-10T10:39:47.727Z,62.20
2019-05-10T10:42:18.137Z,62.70
2019-05-10T10:44:48.426Z,62.70
2019-05-10T10:47:22.923Z,60.40
2019-05-10T10:49:50.305Z,61.50
2019-05-10T10:52:20.358Z,60.10
2019-05-10T10:54:50.545Z,58.50
2019-05-10T10:57:20.637Z,59.20
2019-05-10T10:59:50.643Z,58.50
2019-05-10T11:02:33.413Z,57.80
2019-05-10T11:04:52.543Z,58.50
2019-05-10T11:07:22.595Z,59.20
2019-05-10T11:09:53.809Z,59.30
2019-05-10T11:12:24.584Z,59.30
2019-05-10T11:14:54.712Z,59.30
2019-05-10T11:17:24.719Z,60.00
2019-05-10T11:19:54.714Z,59.40
2019-05-10T11:22:27.281Z,60.70
2019-05-10T11:25:03.043Z,62.50
2019-05-10T11:27:28.187Z,62.70
2019-05-10T11:30:00.701Z,61.70
2019-05-10T11:32:31.498Z,62.20
2019-05-10T11:35:05.435Z,60.60
2019-05-10T11:37:36.367Z,59.40
2019-05-10T11:40:07.803Z,60.00
2019-05-10T11:42:51.635Z,59.20
2019-05-10T11:45:26.217Z,60.00
2019-05-10T11:47:58.942Z,59.00
2019-05-10T11:50:32.514Z,57.50
2019-05-10T11:52:57.187Z,57.60
2019-05-10T11:55:27.307Z,57.10
2019-05-10T11:58:02.903Z,57.10
2019-05-10T12:00:33.596Z,57.50
2019-05-10T12:03:07.722Z,57.40
2019-05-10T12:05:52.141Z,56.00
2019-05-10T12:08:18.483Z,55.60
2019-05-10T12:13:24.749Z,55.90
2019-05-10T12:15:52.215Z,55.40
2019-05-10T12:18:26.952Z,55.40
2019-05-10T12:23:31.079Z,56.10
2019-05-10T12:26:06.385Z,55.40
2019-05-10T12:26:50.306Z,55.20
2019-05-10T12:27:14.062Z,55.90
2019-05-10T12:28:35.328Z,55.90
2019-05-10T12:31:01.567Z,56.80
2019-05-10T12:33:31.805Z,54.00
2019-05-10T12:36:01.707Z,53.60
2019-05-10T12:38:35.592Z,53.30
2019-05-10T12:41:05.430Z,53.90
2019-05-10T12:43:35.134Z,54.10
2019-05-10T12:46:05.349Z,53.40
2019-05-10T12:48:35.933Z,54.80
2019-05-10T12:51:11.396Z,55.20
2019-05-10T12:53:44.506Z,54.50
2019-05-10T12:56:10.134Z,53.90
2019-05-10T12:58:40.147Z,53.10
2019-05-10T13:01:10.130Z,53.40
2019-05-10T13:03:40.136Z,52.70
2019-05-10T13:06:10.247Z,53.40
2019-05-10T13:08:40.267Z,53.30
2019-05-10T13:11:10.587Z,52.90
2019-05-10T13:13:40.603Z,52.40
2019-05-10T13:16:11.954Z,52.00
2019-05-10T13:18:50.403Z,51.70
2019-05-10T13:21:20.703Z,51.70
2019-05-10T13:23:45.736Z,53.20
2019-05-10T13:26:15.808Z,52.10
2019-05-10T13:28:45.943Z,51.90
2019-05-10T13:31:16.067Z,53.00
2019-05-10T13:33:46.270Z,52.60
2019-05-10T13:36:16.306Z,52.40
2019-05-10T13:38:49.234Z,52.60
2019-05-10T13:41:23.712Z,52.60
2019-05-10T13:43:49.719Z,53.20
2019-05-10T13:46:19.687Z,52.50
2019-05-10T13:48:49.928Z,53.70
2019-05-10T13:51:19.879Z,54.80
2019-05-10T13:53:53.806Z,55.20
2019-05-10T13:56:21.734Z,54.70
2019-05-10T13:58:51.813Z,53.90
2019-05-10T14:01:21.922Z,53.70
2019-05-10T14:04:00.363Z,53.30
2019-05-10T14:06:23.829Z,53.70
2019-05-10T14:08:54.021Z,54.10
2019-05-10T14:11:24.246Z,54.40
2019-05-10T14:13:54.315Z,54.10
2019-05-10T14:16:24.431Z,53.50
2019-05-10T14:18:54.503Z,54.50
2019-05-10T14:21:24.594Z,54.10
2019-05-10T14:23:56.878Z,53.90
2019-05-10T14:26:26.428Z,54.10
2019-05-10T14:28:56.502Z,52.80
2019-05-10T14:31:26.551Z,54.10
2019-05-10T14:36:28.355Z,53.10
2019-05-10T14:38:58.391Z,52.80
2019-05-10T14:41:28.515Z,52.20
2019-05-10T14:43:58.566Z,52.30
2019-05-10T14:46:28.653Z,51.50
2019-05-10T14:49:08.882Z,52.30
2019-05-10T14:51:40.714Z,52.30
2019-05-10T14:54:06.795Z,51.60
2019-05-10T14:56:33.951Z,52.40
2019-05-10T14:59:04.083Z,52.40
2019-05-10T15:01:36.994Z,52.10
2019-05-10T15:04:06.007Z,51.90
2019-05-10T15:06:36.883Z,52.10
2019-05-10T15:09:27.177Z,52.00
2019-05-10T15:11:57.420Z,53.20
2019-05-10T15:14:27.662Z,52.70
2019-05-10T15:16:57.772Z,53.00
2019-05-10T15:19:31.804Z,53.30
2019-05-10T15:22:03.598Z,53.90
2019-05-10T15:24:34.771Z,53.70
2019-05-10T15:27:05.503Z,53.00
2019-05-10T15:29:36.002Z,52.90
2019-05-10T15:32:06.106Z,51.80
2019-05-10T15:34:36.121Z,51.40
2019-05-10T15:37:09.394Z,52.70
2019-05-10T15:39:38.122Z,52.20
2019-05-10T15:42:08.243Z,52.70
2019-05-10T15:44:38.327Z,52.40
2019-05-10T15:47:14.529Z,52.40
2019-05-10T15:49:41.078Z,51.70
2019-05-10T15:52:17.333Z,52.00
2019-05-10T15:54:44.642Z,52.80
2019-05-10T15:57:20.176Z,52.90
2019-05-10T15:59:50.833Z,52.60
2019-05-10T16:02:18.239Z,52.40
2019-05-10T16:04:48.231Z,51.60
2019-05-10T16:07:18.423Z,52.60
2019-05-10T16:09:49.839Z,53.10
2019-05-10T16:12:20.213Z,53.60
2019-05-10T16:14:50.419Z,53.40
2019-05-10T16:17:23.781Z,51.40
2019-05-10T16:19:59.767Z,51.50
2019-05-10T16:22:25.311Z,52.00
2019-05-10T16:25:00.869Z,51.90
2019-05-10T16:27:27.315Z,51.00
2019-05-10T16:29:57.422Z,51.40
2019-05-10T16:32:29.385Z,51.70
2019-05-10T16:34:59.408Z,52.10
2019-05-10T16:37:29.363Z,51.50
2019-05-10T16:39:59.420Z,51.70
2019-05-10T16:42:34.602Z,51.30
2019-05-10T16:45:01.255Z,50.50
2019-05-10T16:47:31.857Z,51.70
2019-05-10T16:50:02.032Z,52.20
2019-05-10T16:52:32.071Z,51.90
2019-05-10T16:55:09.583Z,52.60
2019-05-10T16:57:39.744Z,52.10
2019-05-10T17:00:11.311Z,51.40
2019-05-10T17:02:43.852Z,50.10
2019-05-10T17:05:15.220Z,51.40
2019-05-10T17:07:45.079Z,51.90
2019-05-10T17:10:15.213Z,53.10
2019-05-10T17:12:45.334Z,52.40
2019-05-10T17:15:15.746Z,51.80
2019-05-10T17:17:46.083Z,54.00
2019-05-10T17:20:16.438Z,52.70
2019-05-10T17:22:46.376Z,53.60
2019-05-10T17:25:16.498Z,53.40
2019-05-10T17:27:50.564Z,52.40
2019-05-10T17:30:22.433Z,53.00
2019-05-10T17:32:50.384Z,53.70
2019-05-10T17:35:20.580Z,54.40
2019-05-10T17:37:52.960Z,55.00
2019-05-10T17:40:22.420Z,54.50
2019-05-10T17:42:52.519Z,53.80
2019-05-10T17:45:23.837Z,54.00
2019-05-10T17:47:53.834Z,54.30
2019-05-10T17:50:23.881Z,53.90
2019-05-10T17:52:53.959Z,52.90
2019-05-10T17:55:25.565Z,54.10
2019-05-10T17:57:56.596Z,54.60
2019-05-10T18:00:26.898Z,53.70
2019-05-10T18:02:57.011Z,54.30
2019-05-10T18:05:27.114Z,54.00
2019-05-10T18:07:57.306Z,55.00
2019-05-10T18:10:27.377Z,55.50
2019-05-10T18:13:03.149Z,56.10
2019-05-10T18:15:32.830Z,56.60
2019-05-10T18:18:02.670Z,56.30
2019-05-10T18:20:40.972Z,56.80
2019-05-10T18:23:04.256Z,56.90
2019-05-10T18:25:34.566Z,57.50
2019-05-10T18:28:04.667Z,57.50
2019-05-10T18:30:34.720Z,57.60
2019-05-10T18:33:06.696Z,58.00
2019-05-10T18:35:36.540Z,58.10
2019-05-10T18:38:06.706Z,58.40
2019-05-10T18:40:36.823Z,58.40
2019-05-10T18:43:07.054Z,59.10
2019-05-10T18:45:37.095Z,59.20
2019-05-10T18:48:07.187Z,59.50
2019-05-10T18:50:39.570Z,59.50
2019-05-10T18:53:09.819Z,59.30
2019-05-10T18:55:39.910Z,59.00
2019-05-10T18:58:09.891Z,59.00
2019-05-10T19:00:40.371Z,59.70
2019-05-10T19:03:10.743Z,59.30
2019-05-10T19:05:40.847Z,59.60
2019-05-10T19:08:10.952Z,59.90
2019-05-10T19:10:41.101Z,60.40
2019-05-10T19:13:11.431Z,61.40
2019-05-10T19:15:46.365Z,60.50
2019-05-10T19:18:17.689Z,61.70
2019-05-10T19:20:48.848Z,62.30
2019-05-10T19:23:19.555Z,62.00
2019-05-10T19:25:51.712Z,62.70
2019-05-10T19:28:26.790Z,63.20
2019-05-10T19:30:58.644Z,63.20
2019-05-10T19:33:29.529Z,63.40
2019-05-10T19:35:56.841Z,63.10
2019-05-10T19:38:26.883Z,63.70
2019-05-10T19:40:57.022Z,64.60
2019-05-10T19:43:27.059Z,65.80
2019-05-10T19:45:58.081Z,65.60
2019-05-10T19:48:29.425Z,66.20
2019-05-10T19:51:02.846Z,66.20
2019-05-10T19:53:36.607Z,67.00
2019-05-10T19:56:05.155Z,67.40
2019-05-10T19:58:35.156Z,67.90
2019-05-10T20:01:05.303Z,68.70
2019-05-10T20:03:36.565Z,69.30
2019-05-10T20:06:09.320Z,70.20
2019-05-10T20:08:39.592Z,71.00
2019-05-10T20:11:09.566Z,71.40
2019-05-10T20:13:39.703Z,71.30
